sensor_id;sensor_type;location;lat;lon;timestamp;temperature;humidity
11617;DHT22;5864;52.998;9.068;2022-09-09T00:00:24;15.60;99.90
11617;DHT22;5864;52.998;9.068;2022-09-09T00:02:58;15.60;99.90
11617;DHT22;5864;52.998;9.068;2022-09-09T00:05:34;15.60;99.90
11617;DHT22;5864;52.998;9.068;2022-09-09T00:08:03;15.60;99.90
11617;DHT22;5864;52.998;9.068;2022-09-09T00:10:33;15.60;99.90
11617;DHT22;5864;52.998;9.068;2022-09-09T00:13:09;15.60;99.90
11617;DHT22;5864;52.998;9.068;2022-09-09T00:15:46;15.60;99.90
11617;DHT22;5864;52.998;9.068;2022-09-09T00:18:28;15.50;99.90
11617;DHT22;5864;52.998;9.068;2022-09-09T00:21:04;15.60;99.90
11617;DHT22;5864;52.998;9.068;2022-09-09T00:23:35;15.60;99.90
11617;DHT22;5864;52.998;9.068;2022-09-09T00:26:09;15.60;99.90
11617;DHT22;5864;52.998;9.068;2022-09-09T00:28:44;15.50;99.90
11617;DHT22;5864;52.998;9.068;2022-09-09T00:31:15;15.50;99.90
11617;DHT22;5864;52.998;9.068;2022-09-09T00:33:46;15.40;99.90
11617;DHT22;5864;52.998;9.068;2022-09-09T00:36:15;15.40;99.90
11617;DHT22;5864;52.998;9.068;2022-09-09T00:38:46;15.40;99.90
11617;DHT22;5864;52.998;9.068;2022-09-09T00:41:21;15.40;99.90
11617;DHT22;5864;52.998;9.068;2022-09-09T00:43:56;15.30;99.90
11617;DHT22;5864;52.998;9.068;2022-09-09T00:49:32;15.30;99.90
11617;DHT22;5864;52.998;9.068;2022-09-09T00:52:13;15.30;99.90
11617;DHT22;5864;52.998;9.068;2022-09-09T00:54:50;15.40;99.90
11617;DHT22;5864;52.998;9.068;2022-09-09T00:57:25;15.30;99.90
11617;DHT22;5864;52.998;9.068;2022-09-09T01:00:15;15.30;99.90
11617;DHT22;5864;52.998;9.068;2022-09-09T01:03:05;15.30;99.90
11617;DHT22;5864;52.998;9.068;2022-09-09T01:05:39;15.30;99.90
11617;DHT22;5864;52.998;9.068;2022-09-09T01:08:16;15.30;99.90
11617;DHT22;5864;52.998;9.068;2022-09-09T01:10:50;15.30;99.90
11617;DHT22;5864;52.998;9.068;2022-09-09T01:13:23;15.20;99.90
11617;DHT22;5864;52.998;9.068;2022-09-09T01:15:53;15.20;99.90
11617;DHT22;5864;52.998;9.068;2022-09-09T01:18:23;15.20;99.90
11617;DHT22;5864;52.998;9.068;2022-09-09T01:20:59;15.30;99.90
11617;DHT22;5864;52.998;9.068;2022-09-09T01:23:43;15.30;99.90
11617;DHT22;5864;52.998;9.068;2022-09-09T01:26:18;15.20;99.90
11617;DHT22;5864;52.998;9.068;2022-09-09T01:28:48;15.20;99.90
11617;DHT22;5864;52.998;9.068;2022-09-09T01:31:20;15.20;99.90
11617;DHT22;5864;52.998;9.068;2022-09-09T01:33:49;15.20;99.90
11617;DHT22;5864;52.998;9.068;2022-09-09T01:36:23;15.10;99.90
11617;DHT22;5864;52.998;9.068;2022-09-09T01:38:52;15.10;99.90
11617;DHT22;5864;52.998;9.068;2022-09-09T01:41:21;15.00;99.90
11617;DHT22;5864;52.998;9.068;2022-09-09T01:43:50;15.00;99.90
11617;DHT22;5864;52.998;9.068;2022-09-09T01:46:18;15.00;99.90
11617;DHT22;5864;52.998;9.068;2022-09-09T01:48:50;15.00;99.90
11617;DHT22;5864;52.998;9.068;2022-09-09T01:51:18;15.00;99.90
11617;DHT22;5864;52.998;9.068;2022-09-09T01:53:46;14.90;99.90
11617;DHT22;5864;52.998;9.068;2022-09-09T01:56:32;14.90;99.90
11617;DHT22;5864;52.998;9.068;2022-09-09T01:59:19;14.90;99.90
11617;DHT22;5864;52.998;9.068;2022-09-09T02:02:02;14.90;99.90
11617;DHT22;5864;52.998;9.068;2022-09-09T02:04:38;14.90;99.90
11617;DHT22;5864;52.998;9.068;2022-09-09T02:07:15;14.90;99.90
11617;DHT22;5864;52.998;9.068;2022-09-09T02:09:50;14.90;99.90
11617;DHT22;5864;52.998;9.068;2022-09-09T02:12:22;14.90;99.90
11617;DHT22;5864;52.998;9.068;2022-09-09T02:14:56;14.90;99.90
11617;DHT22;5864;52.998;9.068;2022-09-09T02:17:29;14.80;99.90
11617;DHT22;5864;52.998;9.068;2022-09-09T02:20:03;14.70;99.90
11617;DHT22;5864;52.998;9.068;2022-09-09T02:22:33;14.80;99.90
11617;DHT22;5864;52.998;9.068;2022-09-09T02:25:02;14.70;99.90
11617;DHT22;5864;52.998;9.068;2022-09-09T02:27:33;14.70;99.90
11617;DHT22;5864;52.998;9.068;2022-09-09T02:30:02;14.70;99.90
11617;DHT22;5864;52.998;9.068;2022-09-09T02:32:32;14.60;99.90
11617;DHT22;5864;52.998;9.068;2022-09-09T02:35:05;14.60;99.90
11617;DHT22;5864;52.998;9.068;2022-09-09T02:37:36;14.60;99.90
11617;DHT22;5864;52.998;9.068;2022-09-09T02:40:05;14.60;99.90
11617;DHT22;5864;52.998;9.068;2022-09-09T02:42:39;14.60;99.90
11617;DHT22;5864;52.998;9.068;2022-09-09T02:45:08;14.50;99.90
11617;DHT22;5864;52.998;9.068;2022-09-09T02:47:41;14.50;99.90
11617;DHT22;5864;52.998;9.068;2022-09-09T02:50:15;14.50;99.90
11617;DHT22;5864;52.998;9.068;2022-09-09T02:52:56;14.40;99.90
11617;DHT22;5864;52.998;9.068;2022-09-09T02:55:34;14.40;99.90
11617;DHT22;5864;52.998;9.068;2022-09-09T02:58:08;14.40;99.90
11617;DHT22;5864;52.998;9.068;2022-09-09T03:00:37;14.40;99.90
11617;DHT22;5864;52.998;9.068;2022-09-09T03:03:05;14.40;99.90
11617;DHT22;5864;52.998;9.068;2022-09-09T03:05:34;14.40;99.90
11617;DHT22;5864;52.998;9.068;2022-09-09T03:08:03;14.40;99.90
11617;DHT22;5864;52.998;9.068;2022-09-09T03:10:31;14.40;99.90
11617;DHT22;5864;52.998;9.068;2022-09-09T03:12:59;14.40;99.90
11617;DHT22;5864;52.998;9.068;2022-09-09T03:15:28;14.40;99.90
11617;DHT22;5864;52.998;9.068;2022-09-09T03:17:56;14.40;99.90
11617;DHT22;5864;52.998;9.068;2022-09-09T03:20:24;14.40;99.90
11617;DHT22;5864;52.998;9.068;2022-09-09T03:22:52;14.40;99.90
11617;DHT22;5864;52.998;9.068;2022-09-09T03:25:21;14.40;99.90
11617;DHT22;5864;52.998;9.068;2022-09-09T03:27:49;14.50;99.90
11617;DHT22;5864;52.998;9.068;2022-09-09T03:30:19;14.40;99.90
11617;DHT22;5864;52.998;9.068;2022-09-09T03:32:48;14.40;99.90
11617;DHT22;5864;52.998;9.068;2022-09-09T03:35:16;14.40;99.90
11617;DHT22;5864;52.998;9.068;2022-09-09T03:37:45;14.40;99.90
11617;DHT22;5864;52.998;9.068;2022-09-09T03:40:13;14.40;99.90
11617;DHT22;5864;52.998;9.068;2022-09-09T03:42:40;14.40;99.90
11617;DHT22;5864;52.998;9.068;2022-09-09T03:45:09;14.40;99.90
11617;DHT22;5864;52.998;9.068;2022-09-09T03:47:37;14.40;99.90
11617;DHT22;5864;52.998;9.068;2022-09-09T03:50:08;14.40;99.90
11617;DHT22;5864;52.998;9.068;2022-09-09T03:52:36;14.40;99.90
11617;DHT22;5864;52.998;9.068;2022-09-09T03:55:05;14.40;99.90
11617;DHT22;5864;52.998;9.068;2022-09-09T03:57:33;14.40;99.90
11617;DHT22;5864;52.998;9.068;2022-09-09T04:00:03;14.50;99.90
11617;DHT22;5864;52.998;9.068;2022-09-09T04:02:31;14.50;99.90
11617;DHT22;5864;52.998;9.068;2022-09-09T04:04:58;14.50;99.90
11617;DHT22;5864;52.998;9.068;2022-09-09T04:07:28;14.50;99.90
11617;DHT22;5864;52.998;9.068;2022-09-09T04:09:56;14.50;99.90
11617;DHT22;5864;52.998;9.068;2022-09-09T04:12:23;14.50;99.90
11617;DHT22;5864;52.998;9.068;2022-09-09T04:14:51;14.60;99.90
11617;DHT22;5864;52.998;9.068;2022-09-09T04:17:18;14.60;99.90
11617;DHT22;5864;52.998;9.068;2022-09-09T04:19:45;14.60;99.90
11617;DHT22;5864;52.998;9.068;2022-09-09T04:22:13;14.60;99.90
11617;DHT22;5864;52.998;9.068;2022-09-09T04:24:42;14.60;99.90
11617;DHT22;5864;52.998;9.068;2022-09-09T04:27:09;14.60;99.90
11617;DHT22;5864;52.998;9.068;2022-09-09T04:29:37;14.70;99.90
11617;DHT22;5864;52.998;9.068;2022-09-09T04:32:04;14.60;99.90
11617;DHT22;5864;52.998;9.068;2022-09-09T04:34:33;14.60;99.90
11617;DHT22;5864;52.998;9.068;2022-09-09T04:37:06;14.70;99.90
11617;DHT22;5864;52.998;9.068;2022-09-09T04:39:33;14.70;99.90
11617;DHT22;5864;52.998;9.068;2022-09-09T04:42:02;14.70;99.90
11617;DHT22;5864;52.998;9.068;2022-09-09T04:44:30;14.70;99.90
11617;DHT22;5864;52.998;9.068;2022-09-09T04:46:57;14.70;99.90
11617;DHT22;5864;52.998;9.068;2022-09-09T04:49:25;14.70;99.90
11617;DHT22;5864;52.998;9.068;2022-09-09T04:51:53;14.80;99.90
11617;DHT22;5864;52.998;9.068;2022-09-09T04:54:20;14.80;99.90
11617;DHT22;5864;52.998;9.068;2022-09-09T04:56:50;14.80;99.90
11617;DHT22;5864;52.998;9.068;2022-09-09T04:59:19;14.90;99.90
11617;DHT22;5864;52.998;9.068;2022-09-09T05:01:46;14.90;99.90
11617;DHT22;5864;52.998;9.068;2022-09-09T05:04:14;15.00;99.90
11617;DHT22;5864;52.998;9.068;2022-09-09T05:06:42;15.00;99.90
11617;DHT22;5864;52.998;9.068;2022-09-09T05:09:09;15.00;99.90
11617;DHT22;5864;52.998;9.068;2022-09-09T05:11:37;15.10;99.90
11617;DHT22;5864;52.998;9.068;2022-09-09T05:14:04;15.00;99.90
11617;DHT22;5864;52.998;9.068;2022-09-09T05:16:33;15.10;99.90
11617;DHT22;5864;52.998;9.068;2022-09-09T05:19:01;15.10;99.90
11617;DHT22;5864;52.998;9.068;2022-09-09T05:21:29;15.10;99.90
11617;DHT22;5864;52.998;9.068;2022-09-09T05:23:57;15.20;99.90
11617;DHT22;5864;52.998;9.068;2022-09-09T05:26:26;15.20;99.90
11617;DHT22;5864;52.998;9.068;2022-09-09T05:28:55;15.20;99.90
11617;DHT22;5864;52.998;9.068;2022-09-09T05:31:23;15.30;99.90
11617;DHT22;5864;52.998;9.068;2022-09-09T05:33:55;15.30;99.90
11617;DHT22;5864;52.998;9.068;2022-09-09T05:36:23;15.40;99.90
11617;DHT22;5864;52.998;9.068;2022-09-09T05:38:50;15.40;99.90
11617;DHT22;5864;52.998;9.068;2022-09-09T05:41:19;15.40;99.90
11617;DHT22;5864;52.998;9.068;2022-09-09T05:43:49;15.50;99.90
11617;DHT22;5864;52.998;9.068;2022-09-09T05:46:18;15.50;99.90
11617;DHT22;5864;52.998;9.068;2022-09-09T05:48:46;15.40;99.90
11617;DHT22;5864;52.998;9.068;2022-09-09T05:51:19;15.30;99.90
11617;DHT22;5864;52.998;9.068;2022-09-09T05:53:48;15.40;99.90
11617;DHT22;5864;52.998;9.068;2022-09-09T05:56:18;15.40;99.90
11617;DHT22;5864;52.998;9.068;2022-09-09T05:58:46;15.40;99.90
11617;DHT22;5864;52.998;9.068;2022-09-09T06:01:16;15.40;99.90
11617;DHT22;5864;52.998;9.068;2022-09-09T06:03:46;15.50;99.90
11617;DHT22;5864;52.998;9.068;2022-09-09T06:06:15;15.50;99.90
11617;DHT22;5864;52.998;9.068;2022-09-09T06:08:45;15.60;99.90
11617;DHT22;5864;52.998;9.068;2022-09-09T06:11:14;15.60;99.90
11617;DHT22;5864;52.998;9.068;2022-09-09T06:13:43;15.70;99.90
11617;DHT22;5864;52.998;9.068;2022-09-09T06:16:11;15.80;99.90
11617;DHT22;5864;52.998;9.068;2022-09-09T06:18:39;15.90;99.90
11617;DHT22;5864;52.998;9.068;2022-09-09T06:21:11;16.10;99.90
11617;DHT22;5864;52.998;9.068;2022-09-09T06:23:42;16.40;99.90
11617;DHT22;5864;52.998;9.068;2022-09-09T06:26:13;16.40;99.90
11617;DHT22;5864;52.998;9.068;2022-09-09T06:28:41;16.50;99.90
11617;DHT22;5864;52.998;9.068;2022-09-09T06:31:10;16.70;99.90
11617;DHT22;5864;52.998;9.068;2022-09-09T06:33:39;17.20;99.90
11617;DHT22;5864;52.998;9.068;2022-09-09T06:36:07;18.00;99.90
11617;DHT22;5864;52.998;9.068;2022-09-09T06:38:37;19.10;99.90
11617;DHT22;5864;52.998;9.068;2022-09-09T06:41:05;19.90;99.90
11617;DHT22;5864;52.998;9.068;2022-09-09T06:43:34;20.60;99.90
11617;DHT22;5864;52.998;9.068;2022-09-09T06:46:03;21.40;99.90
11617;DHT22;5864;52.998;9.068;2022-09-09T06:48:31;22.10;99.90
11617;DHT22;5864;52.998;9.068;2022-09-09T06:51:04;22.60;99.90
11617;DHT22;5864;52.998;9.068;2022-09-09T06:53:32;23.00;99.90
11617;DHT22;5864;52.998;9.068;2022-09-09T06:56:01;23.40;99.90
11617;DHT22;5864;52.998;9.068;2022-09-09T06:58:28;23.50;99.90
11617;DHT22;5864;52.998;9.068;2022-09-09T07:01:03;23.90;99.90
11617;DHT22;5864;52.998;9.068;2022-09-09T07:03:31;24.30;99.90
11617;DHT22;5864;52.998;9.068;2022-09-09T07:05:59;24.40;99.90
11617;DHT22;5864;52.998;9.068;2022-09-09T07:08:27;24.80;99.90
11617;DHT22;5864;52.998;9.068;2022-09-09T07:11:02;25.40;99.90
11617;DHT22;5864;52.998;9.068;2022-09-09T07:13:31;26.20;99.90
11617;DHT22;5864;52.998;9.068;2022-09-09T07:16:04;26.90;99.90
11617;DHT22;5864;52.998;9.068;2022-09-09T07:18:33;27.30;99.80
11617;DHT22;5864;52.998;9.068;2022-09-09T07:21:02;27.10;96.40
11617;DHT22;5864;52.998;9.068;2022-09-09T07:23:31;27.40;98.40
11617;DHT22;5864;52.998;9.068;2022-09-09T07:25:58;28.10;97.60
11617;DHT22;5864;52.998;9.068;2022-09-09T07:28:26;28.20;96.60
11617;DHT22;5864;52.998;9.068;2022-09-09T07:30:55;28.40;93.80
11617;DHT22;5864;52.998;9.068;2022-09-09T07:33:24;28.30;93.10
11617;DHT22;5864;52.998;9.068;2022-09-09T07:35:52;27.70;96.70
11617;DHT22;5864;52.998;9.068;2022-09-09T07:38:20;28.20;94.50
11617;DHT22;5864;52.998;9.068;2022-09-09T07:40:48;28.40;94.90
11617;DHT22;5864;52.998;9.068;2022-09-09T07:43:16;28.40;93.10
11617;DHT22;5864;52.998;9.068;2022-09-09T07:45:45;28.60;93.80
11617;DHT22;5864;52.998;9.068;2022-09-09T07:48:13;28.90;92.70
11617;DHT22;5864;52.998;9.068;2022-09-09T07:50:42;29.20;92.60
11617;DHT22;5864;52.998;9.068;2022-09-09T07:53:09;30.00;91.20
11617;DHT22;5864;52.998;9.068;2022-09-09T07:55:37;29.20;90.70
11617;DHT22;5864;52.998;9.068;2022-09-09T07:58:04;28.80;91.50
11617;DHT22;5864;52.998;9.068;2022-09-09T08:00:32;28.70;90.70
11617;DHT22;5864;52.998;9.068;2022-09-09T08:02:59;28.50;92.10
11617;DHT22;5864;52.998;9.068;2022-09-09T08:05:28;28.50;90.70
11617;DHT22;5864;52.998;9.068;2022-09-09T08:07:56;28.40;91.00
11617;DHT22;5864;52.998;9.068;2022-09-09T08:10:24;28.60;92.50
11617;DHT22;5864;52.998;9.068;2022-09-09T08:12:52;29.30;90.60
11617;DHT22;5864;52.998;9.068;2022-09-09T08:15:19;29.20;87.90
11617;DHT22;5864;52.998;9.068;2022-09-09T08:17:47;28.80;90.10
11617;DHT22;5864;52.998;9.068;2022-09-09T08:20:15;28.70;90.90
11617;DHT22;5864;52.998;9.068;2022-09-09T08:22:42;29.00;91.40
11617;DHT22;5864;52.998;9.068;2022-09-09T08:25:11;29.20;91.20
11617;DHT22;5864;52.998;9.068;2022-09-09T08:27:38;29.20;90.50
11617;DHT22;5864;52.998;9.068;2022-09-09T08:30:06;28.70;90.40
11617;DHT22;5864;52.998;9.068;2022-09-09T08:32:34;27.60;92.50
11617;DHT22;5864;52.998;9.068;2022-09-09T08:35:02;27.40;91.70
11617;DHT22;5864;52.998;9.068;2022-09-09T08:37:30;26.50;94.80
11617;DHT22;5864;52.998;9.068;2022-09-09T08:39:57;26.40;94.50
11617;DHT22;5864;52.998;9.068;2022-09-09T08:42:34;26.40;94.70
11617;DHT22;5864;52.998;9.068;2022-09-09T08:45:12;26.10;94.60
11617;DHT22;5864;52.998;9.068;2022-09-09T08:47:51;26.10;96.00
11617;DHT22;5864;52.998;9.068;2022-09-09T08:50:23;26.10;97.80
11617;DHT22;5864;52.998;9.068;2022-09-09T08:52:57;25.90;96.00
11617;DHT22;5864;52.998;9.068;2022-09-09T08:55:36;25.20;98.60
11617;DHT22;5864;52.998;9.068;2022-09-09T08:58:12;25.80;98.00
11617;DHT22;5864;52.998;9.068;2022-09-09T09:00:50;26.10;98.20
11617;DHT22;5864;52.998;9.068;2022-09-09T09:03:30;26.70;97.20
11617;DHT22;5864;52.998;9.068;2022-09-09T09:06:04;27.60;94.40
11617;DHT22;5864;52.998;9.068;2022-09-09T09:08:39;27.70;93.40
11617;DHT22;5864;52.998;9.068;2022-09-09T09:11:10;26.30;95.30
11617;DHT22;5864;52.998;9.068;2022-09-09T09:13:43;25.30;97.40
11617;DHT22;5864;52.998;9.068;2022-09-09T09:16:22;24.10;99.50
11617;DHT22;5864;52.998;9.068;2022-09-09T09:18:51;23.50;99.90
11617;DHT22;5864;52.998;9.068;2022-09-09T09:21:26;23.40;99.90
11617;DHT22;5864;52.998;9.068;2022-09-09T09:23:58;23.40;99.90
11617;DHT22;5864;52.998;9.068;2022-09-09T09:26:30;23.40;99.90
11617;DHT22;5864;52.998;9.068;2022-09-09T09:29:03;23.30;99.90
11617;DHT22;5864;52.998;9.068;2022-09-09T09:31:36;23.20;99.90
11617;DHT22;5864;52.998;9.068;2022-09-09T09:34:04;22.80;99.90
11617;DHT22;5864;52.998;9.068;2022-09-09T09:36:39;23.10;99.90
11617;DHT22;5864;52.998;9.068;2022-09-09T09:39:09;23.70;99.90
11617;DHT22;5864;52.998;9.068;2022-09-09T09:41:38;23.80;99.90
11617;DHT22;5864;52.998;9.068;2022-09-09T09:44:23;24.00;99.90
11617;DHT22;5864;52.998;9.068;2022-09-09T09:46:52;24.10;99.90
11617;DHT22;5864;52.998;9.068;2022-09-09T09:49:20;23.70;99.90
11617;DHT22;5864;52.998;9.068;2022-09-09T09:51:48;23.70;99.90
11617;DHT22;5864;52.998;9.068;2022-09-09T09:54:21;24.00;99.90
11617;DHT22;5864;52.998;9.068;2022-09-09T09:56:50;23.50;99.90
11617;DHT22;5864;52.998;9.068;2022-09-09T09:59:32;23.00;99.90
11617;DHT22;5864;52.998;9.068;2022-09-09T10:02:19;22.80;99.90
11617;DHT22;5864;52.998;9.068;2022-09-09T10:04:47;22.90;99.90
11617;DHT22;5864;52.998;9.068;2022-09-09T10:07:18;22.90;99.90
11617;DHT22;5864;52.998;9.068;2022-09-09T10:09:51;23.50;99.90
11617;DHT22;5864;52.998;9.068;2022-09-09T10:12:29;24.50;99.90
11617;DHT22;5864;52.998;9.068;2022-09-09T10:15:05;25.50;99.90
11617;DHT22;5864;52.998;9.068;2022-09-09T10:17:40;26.10;99.70
11617;DHT22;5864;52.998;9.068;2022-09-09T10:20:21;25.90;99.90
11617;DHT22;5864;52.998;9.068;2022-09-09T10:23:00;25.80;99.30
11617;DHT22;5864;52.998;9.068;2022-09-09T10:25:39;25.70;99.30
11617;DHT22;5864;52.998;9.068;2022-09-09T10:28:31;25.30;98.30
11617;DHT22;5864;52.998;9.068;2022-09-09T10:31:10;24.40;99.90
11617;DHT22;5864;52.998;9.068;2022-09-09T10:33:47;23.90;99.90
11617;DHT22;5864;52.998;9.068;2022-09-09T10:36:20;23.30;99.90
11617;DHT22;5864;52.998;9.068;2022-09-09T10:38:52;23.10;99.90
11617;DHT22;5864;52.998;9.068;2022-09-09T10:41:35;22.80;99.90
11617;DHT22;5864;52.998;9.068;2022-09-09T10:44:37;22.70;99.90
11617;DHT22;5864;52.998;9.068;2022-09-09T10:47:29;22.70;99.90
11617;DHT22;5864;52.998;9.068;2022-09-09T10:50:18;22.70;99.90
11617;DHT22;5864;52.998;9.068;2022-09-09T10:52:56;22.60;99.90
11617;DHT22;5864;52.998;9.068;2022-09-09T10:55:35;22.50;99.90
11617;DHT22;5864;52.998;9.068;2022-09-09T10:58:04;22.10;99.90
11617;DHT22;5864;52.998;9.068;2022-09-09T11:00:38;21.90;99.90
11617;DHT22;5864;52.998;9.068;2022-09-09T11:03:17;21.80;99.90
11617;DHT22;5864;52.998;9.068;2022-09-09T11:05:49;21.60;99.90
11617;DHT22;5864;52.998;9.068;2022-09-09T11:08:20;21.40;99.90
11617;DHT22;5864;52.998;9.068;2022-09-09T11:10:52;21.30;99.90
11617;DHT22;5864;52.998;9.068;2022-09-09T11:13:28;21.30;99.90
11617;DHT22;5864;52.998;9.068;2022-09-09T11:16:03;21.30;99.90
11617;DHT22;5864;52.998;9.068;2022-09-09T11:18:38;21.30;99.90
11617;DHT22;5864;52.998;9.068;2022-09-09T11:21:12;21.20;99.90
11617;DHT22;5864;52.998;9.068;2022-09-09T11:23:47;21.30;99.90
11617;DHT22;5864;52.998;9.068;2022-09-09T11:26:20;21.20;99.90
11617;DHT22;5864;52.998;9.068;2022-09-09T11:29:01;21.30;99.90
11617;DHT22;5864;52.998;9.068;2022-09-09T11:31:44;21.30;99.90
11617;DHT22;5864;52.998;9.068;2022-09-09T11:34:27;21.20;99.90
11617;DHT22;5864;52.998;9.068;2022-09-09T11:40:21;20.70;99.90
11617;DHT22;5864;52.998;9.068;2022-09-09T11:42:49;20.60;99.90
11617;DHT22;5864;52.998;9.068;2022-09-09T11:45:28;20.40;99.90
11617;DHT22;5864;52.998;9.068;2022-09-09T11:47:57;20.00;99.90
11617;DHT22;5864;52.998;9.068;2022-09-09T11:50:34;19.60;99.90
11617;DHT22;5864;52.998;9.068;2022-09-09T11:53:20;19.40;99.90
11617;DHT22;5864;52.998;9.068;2022-09-09T11:56:03;19.30;99.90
11617;DHT22;5864;52.998;9.068;2022-09-09T11:58:38;19.30;99.90
11617;DHT22;5864;52.998;9.068;2022-09-09T12:01:15;19.10;99.90
11617;DHT22;5864;52.998;9.068;2022-09-09T12:03:45;18.60;99.90
11617;DHT22;5864;52.998;9.068;2022-09-09T12:06:19;18.10;99.90
11617;DHT22;5864;52.998;9.068;2022-09-09T12:08:57;17.70;99.90
11617;DHT22;5864;52.998;9.068;2022-09-09T12:11:31;17.50;99.90
11617;DHT22;5864;52.998;9.068;2022-09-09T12:14:00;17.10;99.90
11617;DHT22;5864;52.998;9.068;2022-09-09T12:16:30;17.30;99.90
11617;DHT22;5864;52.998;9.068;2022-09-09T12:19:12;17.30;99.90
11617;DHT22;5864;52.998;9.068;2022-09-09T12:21:48;17.30;99.90
11617;DHT22;5864;52.998;9.068;2022-09-09T12:24:20;17.40;99.90
11617;DHT22;5864;52.998;9.068;2022-09-09T12:26:57;17.40;99.90
11617;DHT22;5864;52.998;9.068;2022-09-09T12:29:32;17.30;99.90
11617;DHT22;5864;52.998;9.068;2022-09-09T12:32:07;17.30;99.90
11617;DHT22;5864;52.998;9.068;2022-09-09T12:34:39;17.30;99.90
11617;DHT22;5864;52.998;9.068;2022-09-09T12:37:15;17.30;99.90
11617;DHT22;5864;52.998;9.068;2022-09-09T12:39:47;17.30;99.90
11617;DHT22;5864;52.998;9.068;2022-09-09T12:42:18;17.10;99.90
11617;DHT22;5864;52.998;9.068;2022-09-09T12:44:56;17.10;99.90
11617;DHT22;5864;52.998;9.068;2022-09-09T12:47:30;17.30;99.90
11617;DHT22;5864;52.998;9.068;2022-09-09T12:50:02;17.30;99.90
11617;DHT22;5864;52.998;9.068;2022-09-09T12:52:34;17.30;99.90
11617;DHT22;5864;52.998;9.068;2022-09-09T12:55:05;17.20;99.90
11617;DHT22;5864;52.998;9.068;2022-09-09T12:57:37;17.20;99.90
11617;DHT22;5864;52.998;9.068;2022-09-09T13:00:11;17.20;99.90
11617;DHT22;5864;52.998;9.068;2022-09-09T13:02:52;17.40;99.90
11617;DHT22;5864;52.998;9.068;2022-09-09T13:05:22;17.40;99.90
11617;DHT22;5864;52.998;9.068;2022-09-09T13:07:51;17.50;99.90
11617;DHT22;5864;52.998;9.068;2022-09-09T13:10:26;17.70;99.90
11617;DHT22;5864;52.998;9.068;2022-09-09T13:12:55;17.70;99.90
11617;DHT22;5864;52.998;9.068;2022-09-09T13:15:26;17.60;99.90
11617;DHT22;5864;52.998;9.068;2022-09-09T13:17:57;17.70;99.90
11617;DHT22;5864;52.998;9.068;2022-09-09T13:20:27;17.80;99.90
11617;DHT22;5864;52.998;9.068;2022-09-09T13:22:56;18.10;99.90
11617;DHT22;5864;52.998;9.068;2022-09-09T13:25:25;18.40;99.90
11617;DHT22;5864;52.998;9.068;2022-09-09T13:27:55;18.60;99.90
11617;DHT22;5864;52.998;9.068;2022-09-09T13:30:26;18.80;99.90
11617;DHT22;5864;52.998;9.068;2022-09-09T13:33:20;19.10;99.90
11617;DHT22;5864;52.998;9.068;2022-09-09T13:35:51;19.30;99.90
11617;DHT22;5864;52.998;9.068;2022-09-09T13:38:21;19.50;99.90
11617;DHT22;5864;52.998;9.068;2022-09-09T13:40:56;19.50;99.90
11617;DHT22;5864;52.998;9.068;2022-09-09T13:43:26;19.50;99.90
11617;DHT22;5864;52.998;9.068;2022-09-09T13:45:55;19.50;99.90
11617;DHT22;5864;52.998;9.068;2022-09-09T13:48:24;19.50;99.90
11617;DHT22;5864;52.998;9.068;2022-09-09T13:51:01;19.60;99.90
11617;DHT22;5864;52.998;9.068;2022-09-09T13:53:31;19.50;99.90
11617;DHT22;5864;52.998;9.068;2022-09-09T13:55:59;19.40;99.90
11617;DHT22;5864;52.998;9.068;2022-09-09T13:58:27;19.50;99.90
11617;DHT22;5864;52.998;9.068;2022-09-09T14:00:55;19.50;99.90
11617;DHT22;5864;52.998;9.068;2022-09-09T14:03:23;19.60;99.90
11617;DHT22;5864;52.998;9.068;2022-09-09T14:05:51;19.60;99.90
11617;DHT22;5864;52.998;9.068;2022-09-09T14:08:25;19.60;99.90
11617;DHT22;5864;52.998;9.068;2022-09-09T14:10:54;19.50;99.90
11617;DHT22;5864;52.998;9.068;2022-09-09T14:13:24;19.50;99.90
11617;DHT22;5864;52.998;9.068;2022-09-09T14:15:51;19.50;99.90
11617;DHT22;5864;52.998;9.068;2022-09-09T14:18:19;19.40;99.90
11617;DHT22;5864;52.998;9.068;2022-09-09T14:20:48;19.40;99.90
11617;DHT22;5864;52.998;9.068;2022-09-09T14:23:16;19.30;99.90
11617;DHT22;5864;52.998;9.068;2022-09-09T14:25:44;19.10;99.90
11617;DHT22;5864;52.998;9.068;2022-09-09T14:28:14;19.10;99.90
11617;DHT22;5864;52.998;9.068;2022-09-09T14:30:43;19.00;99.90
11617;DHT22;5864;52.998;9.068;2022-09-09T14:33:14;18.90;99.90
11617;DHT22;5864;52.998;9.068;2022-09-09T14:35:42;18.70;99.90
11617;DHT22;5864;52.998;9.068;2022-09-09T14:38:10;18.60;99.90
11617;DHT22;5864;52.998;9.068;2022-09-09T14:40:38;18.60;99.90
11617;DHT22;5864;52.998;9.068;2022-09-09T14:43:06;18.60;99.90
11617;DHT22;5864;52.998;9.068;2022-09-09T14:45:35;18.60;99.90
11617;DHT22;5864;52.998;9.068;2022-09-09T14:48:04;18.60;99.90
11617;DHT22;5864;52.998;9.068;2022-09-09T14:50:31;18.50;99.90
11617;DHT22;5864;52.998;9.068;2022-09-09T14:53:00;18.30;99.90
11617;DHT22;5864;52.998;9.068;2022-09-09T14:55:28;18.30;99.90
11617;DHT22;5864;52.998;9.068;2022-09-09T14:57:55;18.20;99.90
11617;DHT22;5864;52.998;9.068;2022-09-09T15:00:23;18.10;99.90
11617;DHT22;5864;52.998;9.068;2022-09-09T15:02:54;18.10;99.90
11617;DHT22;5864;52.998;9.068;2022-09-09T15:05:22;18.10;99.90
11617;DHT22;5864;52.998;9.068;2022-09-09T15:07:50;18.00;99.90
11617;DHT22;5864;52.998;9.068;2022-09-09T15:10:18;18.00;99.90
11617;DHT22;5864;52.998;9.068;2022-09-09T15:12:45;17.90;99.90
11617;DHT22;5864;52.998;9.068;2022-09-09T15:15:13;17.70;99.90
11617;DHT22;5864;52.998;9.068;2022-09-09T15:17:40;17.70;99.90
11617;DHT22;5864;52.998;9.068;2022-09-09T15:20:10;17.60;99.90
11617;DHT22;5864;52.998;9.068;2022-09-09T15:22:37;17.40;99.90
11617;DHT22;5864;52.998;9.068;2022-09-09T15:25:07;17.30;99.90
11617;DHT22;5864;52.998;9.068;2022-09-09T15:27:34;17.20;99.90
11617;DHT22;5864;52.998;9.068;2022-09-09T15:30:05;17.20;99.90
11617;DHT22;5864;52.998;9.068;2022-09-09T15:32:32;17.10;99.90
11617;DHT22;5864;52.998;9.068;2022-09-09T15:35:01;17.00;99.90
11617;DHT22;5864;52.998;9.068;2022-09-09T15:37:30;16.90;99.90
11617;DHT22;5864;52.998;9.068;2022-09-09T15:39:57;16.90;99.90
11617;DHT22;5864;52.998;9.068;2022-09-09T15:42:31;16.70;99.90
11617;DHT22;5864;52.998;9.068;2022-09-09T15:45:11;16.60;99.90
11617;DHT22;5864;52.998;9.068;2022-09-09T15:47:49;16.60;99.90
11617;DHT22;5864;52.998;9.068;2022-09-09T15:50:16;16.60;99.90
11617;DHT22;5864;52.998;9.068;2022-09-09T15:52:45;16.60;99.90
11617;DHT22;5864;52.998;9.068;2022-09-09T15:55:13;16.60;99.90
11617;DHT22;5864;52.998;9.068;2022-09-09T15:57:40;16.60;99.90
11617;DHT22;5864;52.998;9.068;2022-09-09T16:00:09;16.60;99.90
11617;DHT22;5864;52.998;9.068;2022-09-09T16:02:39;16.60;99.90
11617;DHT22;5864;52.998;9.068;2022-09-09T16:05:07;16.60;99.90
11617;DHT22;5864;52.998;9.068;2022-09-09T16:07:35;16.60;99.90
11617;DHT22;5864;52.998;9.068;2022-09-09T16:10:05;16.50;99.90
11617;DHT22;5864;52.998;9.068;2022-09-09T16:12:33;16.50;99.90
11617;DHT22;5864;52.998;9.068;2022-09-09T16:15:01;16.50;99.90
11617;DHT22;5864;52.998;9.068;2022-09-09T16:17:28;16.50;99.90